createdAt,value
2023-07-31T00:02:20.683Z,1.83
2023-07-31T00:04:47.533Z,1.97
2023-07-31T00:07:14.345Z,2.17
2023-07-31T00:09:41.273Z,2.10
2023-07-31T00:12:08.745Z,2.10
2023-07-31T00:14:35.937Z,2.20
2023-07-31T00:17:02.734Z,3.13
2023-07-31T00:19:29.479Z,2.30
2023-07-31T00:21:56.282Z,2.27
2023-07-31T00:24:23.068Z,2.37
2023-07-31T00:26:49.948Z,1.87
2023-07-31T00:29:16.737Z,1.97
2023-07-31T00:31:43.588Z,2.30
2023-07-31T00:34:10.542Z,2.00
2023-07-31T00:36:37.701Z,2.20
2023-07-31T00:39:05.695Z,2.47
2023-07-31T00:41:32.565Z,2.03
2023-07-31T00:43:59.386Z,2.33
2023-07-31T00:46:26.280Z,2.23
2023-07-31T00:48:53.179Z,2.43
2023-07-31T00:51:20.022Z,2.60
2023-07-31T00:53:47.759Z,2.53
2023-07-31T00:56:14.702Z,2.30
2023-07-31T00:58:41.999Z,2.70
2023-07-31T01:01:08.791Z,2.60
2023-07-31T01:03:35.745Z,4.30
2023-07-31T01:06:20.714Z,2.80
2023-07-31T01:08:53.819Z,2.73
2023-07-31T01:11:29.519Z,2.77
2023-07-31T01:14:00.629Z,2.27
2023-07-31T01:16:28.134Z,2.33
2023-07-31T01:18:55.078Z,2.47
2023-07-31T01:21:37.020Z,2.63
2023-07-31T01:24:06.764Z,2.07
2023-07-31T01:26:39.852Z,2.30
2023-07-31T01:29:15.014Z,2.20
2023-07-31T01:31:43.210Z,2.10
2023-07-31T01:34:12.489Z,2.90
2023-07-31T01:36:39.662Z,2.47
2023-07-31T01:39:06.642Z,2.70
2023-07-31T01:41:33.539Z,2.80
2023-07-31T01:44:00.437Z,3.37
2023-07-31T01:46:27.234Z,2.67
2023-07-31T01:48:54.200Z,2.50
2023-07-31T01:51:20.956Z,2.43
2023-07-31T01:53:47.752Z,2.50
2023-07-31T01:56:14.596Z,2.30
2023-07-31T01:58:41.486Z,2.80
2023-07-31T02:01:08.287Z,2.37
2023-07-31T02:03:35.271Z,2.83
2023-07-31T02:06:02.160Z,2.73
2023-07-31T02:08:28.956Z,2.37
2023-07-31T02:10:55.772Z,2.97
2023-07-31T02:13:22.625Z,2.77
2023-07-31T02:15:49.505Z,2.47
2023-07-31T02:18:16.357Z,2.70
2023-07-31T02:20:43.436Z,3.33
2023-07-31T02:23:10.264Z,2.70
2023-07-31T02:25:37.079Z,4.07
2023-07-31T02:28:03.979Z,2.97
2023-07-31T02:30:30.842Z,3.20
2023-07-31T02:32:57.907Z,3.03
2023-07-31T02:35:24.691Z,3.90
2023-07-31T02:37:51.635Z,2.97
2023-07-31T02:40:18.427Z,3.27
2023-07-31T02:42:45.259Z,3.10
2023-07-31T02:45:12.089Z,3.10
2023-07-31T02:47:39.008Z,4.60
2023-07-31T02:50:06.269Z,3.57
2023-07-31T02:52:33.176Z,2.80
2023-07-31T02:54:59.994Z,3.30
2023-07-31T02:57:26.974Z,3.73
2023-07-31T02:59:53.805Z,4.13
2023-07-31T03:02:20.829Z,3.97
2023-07-31T03:04:47.683Z,3.70
2023-07-31T03:07:14.510Z,4.63
2023-07-31T03:09:41.455Z,3.97
2023-07-31T03:12:09.100Z,3.83
2023-07-31T03:14:35.863Z,4.30
2023-07-31T03:17:02.629Z,4.87
2023-07-31T03:19:32.905Z,4.97
2023-07-31T03:22:00.552Z,4.90
2023-07-31T03:24:27.593Z,4.27
2023-07-31T03:26:54.413Z,4.50
2023-07-31T03:29:22.956Z,4.60
2023-07-31T03:31:51.753Z,3.80
2023-07-31T03:34:18.654Z,3.63
2023-07-31T03:36:45.557Z,4.50
2023-07-31T03:39:12.429Z,4.30
2023-07-31T03:41:39.180Z,4.30
2023-07-31T03:44:05.992Z,5.00
2023-07-31T03:46:33.142Z,3.80
2023-07-31T03:49:00.533Z,4.20
2023-07-31T03:51:27.505Z,4.80
2023-07-31T03:53:54.321Z,5.40
2023-07-31T03:56:21.089Z,4.20
2023-07-31T03:58:47.880Z,4.93
2023-07-31T04:01:14.750Z,4.20
2023-07-31T04:03:41.581Z,4.73
2023-07-31T04:06:08.883Z,4.30
2023-07-31T04:08:35.666Z,4.10
2023-07-31T04:11:02.500Z,4.23
2023-07-31T04:13:30.994Z,4.90
2023-07-31T04:15:57.852Z,5.90
2023-07-31T04:18:26.418Z,4.10
2023-07-31T04:20:53.264Z,4.10
2023-07-31T04:23:20.077Z,3.97
2023-07-31T04:25:46.912Z,3.83
2023-07-31T04:28:13.800Z,3.83
2023-07-31T04:30:40.840Z,4.07
2023-07-31T04:33:07.799Z,4.20
2023-07-31T04:35:34.769Z,3.83
2023-07-31T04:38:01.834Z,3.80
2023-07-31T04:40:28.924Z,3.90
2023-07-31T04:42:55.728Z,4.67
2023-07-31T04:45:22.601Z,3.90
2023-07-31T04:47:49.403Z,3.97
2023-07-31T04:50:16.359Z,4.53
2023-07-31T04:52:43.186Z,4.30
2023-07-31T04:55:10.187Z,3.90
2023-07-31T04:57:36.937Z,3.63
2023-07-31T05:00:03.972Z,4.47
2023-07-31T05:02:30.908Z,4.33
2023-07-31T05:04:58.703Z,3.77
2023-07-31T05:07:25.500Z,5.00
2023-07-31T05:09:52.376Z,5.03
2023-07-31T05:12:19.168Z,3.93
2023-07-31T05:14:45.988Z,4.77
2023-07-31T05:17:12.868Z,5.83
2023-07-31T05:19:39.642Z,3.87
2023-07-31T05:22:06.714Z,3.77
2023-07-31T05:24:34.637Z,3.00
2023-07-31T05:27:01.506Z,4.10
2023-07-31T05:29:28.793Z,4.20
2023-07-31T05:31:55.664Z,7.53
2023-07-31T05:34:22.435Z,9.20
2023-07-31T05:36:49.197Z,5.27
2023-07-31T05:39:15.994Z,10.37
2023-07-31T05:41:42.826Z,4.10
2023-07-31T05:44:09.629Z,3.57
2023-07-31T05:46:36.485Z,3.70
2023-07-31T05:49:03.814Z,4.17
2023-07-31T05:51:30.607Z,3.60
2023-07-31T05:53:57.541Z,3.50
2023-07-31T05:56:24.296Z,3.50
2023-07-31T05:58:51.599Z,3.87
2023-07-31T06:01:18.578Z,3.13
2023-07-31T06:03:45.977Z,3.30
2023-07-31T06:06:12.915Z,2.50
2023-07-31T06:08:39.695Z,3.67
2023-07-31T06:11:06.877Z,3.77
2023-07-31T06:13:33.684Z,3.13
2023-07-31T06:16:00.870Z,3.10
2023-07-31T06:18:27.842Z,2.63
2023-07-31T06:20:54.996Z,3.10
2023-07-31T06:23:22.119Z,3.23
2023-07-31T06:25:49.111Z,3.33
2023-07-31T06:28:16.008Z,2.60
2023-07-31T06:30:42.905Z,2.37
2023-07-31T06:33:10.473Z,3.20
2023-07-31T06:35:37.516Z,2.70
2023-07-31T06:38:04.280Z,2.30
2023-07-31T06:40:31.529Z,9.17
2023-07-31T06:42:58.363Z,8.30
2023-07-31T06:45:25.197Z,2.20
2023-07-31T06:47:52.463Z,2.53
2023-07-31T06:50:19.281Z,2.60
2023-07-31T06:52:46.015Z,3.30
2023-07-31T06:55:25.244Z,2.47
2023-07-31T06:57:54.115Z,2.03
2023-07-31T07:00:22.309Z,2.20
2023-07-31T07:02:49.993Z,2.90
2023-07-31T07:05:18.569Z,2.80
2023-07-31T07:07:45.458Z,2.63
2023-07-31T07:10:12.381Z,2.53
2023-07-31T07:12:39.202Z,3.10
2023-07-31T07:15:06.485Z,3.00
2023-07-31T07:17:33.407Z,2.70
2023-07-31T07:20:01.807Z,2.50
2023-07-31T07:22:29.367Z,2.93
2023-07-31T07:24:56.513Z,2.97
2023-07-31T07:27:23.330Z,2.10
2023-07-31T07:29:55.198Z,2.80
2023-07-31T07:32:22.365Z,3.00
2023-07-31T07:34:49.969Z,2.50
2023-07-31T07:37:17.309Z,2.60
2023-07-31T07:39:44.794Z,2.30
2023-07-31T07:42:11.577Z,1.87
2023-07-31T07:44:38.541Z,2.30
2023-07-31T07:47:07.192Z,2.60
2023-07-31T07:49:35.879Z,2.80
2023-07-31T07:52:04.339Z,1.70
2023-07-31T07:54:31.972Z,2.20
2023-07-31T07:56:59.058Z,6.10
2023-07-31T07:59:25.837Z,2.77
2023-07-31T08:01:52.632Z,3.07
2023-07-31T08:04:19.419Z,1.83
2023-07-31T08:06:46.296Z,2.10
2023-07-31T08:09:13.070Z,1.90
2023-07-31T08:11:39.819Z,2.00
2023-07-31T08:14:06.648Z,1.40
2023-07-31T08:16:33.530Z,2.33
2023-07-31T08:19:00.456Z,1.60
2023-07-31T08:21:27.332Z,1.80
2023-07-31T08:23:54.175Z,2.13
2023-07-31T08:26:22.015Z,2.00
2023-07-31T08:28:48.837Z,2.40
2023-07-31T08:31:15.879Z,2.07
2023-07-31T08:33:42.751Z,2.00
2023-07-31T08:36:09.509Z,2.00
2023-07-31T08:38:36.349Z,2.07
2023-07-31T08:41:05.286Z,2.17
2023-07-31T08:43:33.464Z,2.03
2023-07-31T08:46:00.804Z,2.00
2023-07-31T08:48:28.449Z,2.00
2023-07-31T08:50:55.331Z,2.50
2023-07-31T08:53:23.374Z,2.00
2023-07-31T08:55:50.912Z,1.63
2023-07-31T08:58:19.473Z,2.10
2023-07-31T09:00:48.237Z,2.40
2023-07-31T09:03:19.788Z,2.10
2023-07-31T09:05:48.122Z,1.90
2023-07-31T09:08:19.130Z,2.40
2023-07-31T09:10:47.751Z,1.53
2023-07-31T09:13:15.404Z,1.43
2023-07-31T09:15:45.843Z,1.30
2023-07-31T09:18:12.720Z,1.33
2023-07-31T09:20:39.577Z,1.40
2023-07-31T09:23:14.432Z,1.77
2023-07-31T09:25:45.138Z,4.87
2023-07-31T09:28:12.962Z,1.73
2023-07-31T09:30:51.602Z,1.40
2023-07-31T09:33:19.797Z,1.50
2023-07-31T09:35:49.101Z,1.30
2023-07-31T09:38:16.613Z,1.20
2023-07-31T09:40:47.465Z,1.63
2023-07-31T09:43:19.384Z,1.10
2023-07-31T09:45:47.236Z,1.30
2023-07-31T09:48:17.486Z,0.90
2023-07-31T09:50:49.152Z,0.90
2023-07-31T09:53:17.852Z,1.03
2023-07-31T09:55:44.844Z,1.50
2023-07-31T09:58:14.391Z,1.03
2023-07-31T10:00:41.626Z,1.03
2023-07-31T10:03:12.140Z,1.20
2023-07-31T10:05:46.525Z,1.30
2023-07-31T10:08:16.392Z,1.70
2023-07-31T10:10:45.503Z,1.80
2023-07-31T10:13:16.573Z,1.63
2023-07-31T10:15:44.839Z,2.07
2023-07-31T10:18:12.646Z,2.20
2023-07-31T10:20:39.715Z,2.43
2023-07-31T10:23:08.062Z,2.00
2023-07-31T10:25:36.382Z,2.50
2023-07-31T10:28:03.141Z,3.27
2023-07-31T10:30:33.703Z,3.37
2023-07-31T10:33:01.441Z,2.87
2023-07-31T10:35:29.042Z,3.80
2023-07-31T10:37:55.973Z,3.60
2023-07-31T10:40:27.805Z,3.20
2023-07-31T10:42:56.643Z,3.13
2023-07-31T10:45:33.188Z,2.57
2023-07-31T10:48:05.195Z,2.97
2023-07-31T10:50:37.631Z,3.17
2023-07-31T10:53:04.916Z,2.17
2023-07-31T10:55:40.682Z,2.53
2023-07-31T10:58:08.615Z,2.50
2023-07-31T11:00:37.446Z,2.80
2023-07-31T11:03:09.734Z,2.40
2023-07-31T11:05:54.677Z,2.60
2023-07-31T11:08:29.835Z,3.03
2023-07-31T11:11:02.627Z,4.27
2023-07-31T11:13:30.065Z,2.23
2023-07-31T11:15:56.812Z,2.80
2023-07-31T11:18:23.862Z,2.57
2023-07-31T11:20:51.057Z,2.47
2023-07-31T11:23:18.760Z,2.60
2023-07-31T11:25:46.415Z,2.10
2023-07-31T11:28:18.269Z,2.57
2023-07-31T11:30:47.192Z,2.50
2023-07-31T11:33:14.973Z,2.80
2023-07-31T11:35:50.283Z,2.70
2023-07-31T11:38:27.855Z,3.07
2023-07-31T11:41:06.051Z,2.20
2023-07-31T11:43:33.541Z,2.87
2023-07-31T11:46:04.416Z,3.17
2023-07-31T11:48:34.693Z,2.10
2023-07-31T11:51:04.084Z,2.60
2023-07-31T11:53:46.104Z,2.43
2023-07-31T11:56:15.392Z,4.30
2023-07-31T11:58:44.169Z,3.03
2023-07-31T12:01:11.087Z,2.50
2023-07-31T12:03:38.262Z,2.40
2023-07-31T12:06:05.100Z,3.33
2023-07-31T12:08:32.383Z,2.27
2023-07-31T12:11:04.993Z,2.83
2023-07-31T12:13:33.460Z,2.53
2023-07-31T12:16:04.894Z,3.00
2023-07-31T12:18:36.648Z,2.30
2023-07-31T12:21:07.156Z,2.93
2023-07-31T12:23:36.164Z,3.13
2023-07-31T12:26:11.816Z,3.20
2023-07-31T12:28:42.333Z,3.00
2023-07-31T12:31:18.269Z,2.00
2023-07-31T12:33:45.662Z,2.60
2023-07-31T12:36:15.199Z,2.77
2023-07-31T12:38:42.999Z,2.47
2023-07-31T12:41:10.236Z,2.60
2023-07-31T12:43:45.551Z,2.70
2023-07-31T12:46:12.893Z,2.73
2023-07-31T12:48:40.703Z,6.43
2023-07-31T12:51:08.726Z,2.63
2023-07-31T12:53:36.731Z,2.43
2023-07-31T12:56:03.932Z,1.97
2023-07-31T12:58:30.926Z,1.77
2023-07-31T13:00:57.750Z,1.70
2023-07-31T13:03:24.768Z,2.10
2023-07-31T13:05:53.420Z,1.97
2023-07-31T13:08:20.331Z,1.50
2023-07-31T13:10:47.237Z,1.57
2023-07-31T13:13:14.180Z,1.73
2023-07-31T13:15:41.046Z,2.20
2023-07-31T13:18:07.990Z,1.63
2023-07-31T13:20:34.897Z,2.03
2023-07-31T13:23:01.698Z,2.40
2023-07-31T13:25:28.754Z,1.97
2023-07-31T13:27:56.614Z,2.03
2023-07-31T13:30:23.581Z,2.50
2023-07-31T13:32:50.485Z,3.03
2023-07-31T13:35:17.318Z,3.13
2023-07-31T13:37:44.140Z,2.63
2023-07-31T13:40:11.473Z,2.93
2023-07-31T13:42:38.256Z,3.00
2023-07-31T13:45:07.514Z,2.80
2023-07-31T13:47:35.704Z,2.77
2023-07-31T13:50:02.928Z,2.90
2023-07-31T13:52:29.845Z,3.70
2023-07-31T13:54:56.697Z,2.53
2023-07-31T13:57:24.784Z,3.03
2023-07-31T13:59:52.065Z,2.87
2023-07-31T14:02:18.959Z,2.50
2023-07-31T14:04:45.796Z,2.60
2023-07-31T14:07:12.745Z,3.40
2023-07-31T14:09:39.526Z,3.27
2023-07-31T14:12:06.868Z,2.80
2023-07-31T14:14:35.296Z,2.67
2023-07-31T14:17:02.915Z,2.40
2023-07-31T14:19:30.509Z,2.67
2023-07-31T14:22:10.328Z,2.97
2023-07-31T14:24:39.347Z,3.53
2023-07-31T14:27:06.667Z,2.70
2023-07-31T14:29:33.488Z,2.90
2023-07-31T14:32:01.293Z,2.90
2023-07-31T14:34:28.494Z,3.00
2023-07-31T14:36:55.277Z,2.50
2023-07-31T14:39:22.115Z,2.90
2023-07-31T14:41:49.203Z,2.63
2023-07-31T14:44:16.264Z,3.47
2023-07-31T14:46:43.642Z,8.20
2023-07-31T14:49:10.687Z,2.60
2023-07-31T14:51:37.562Z,2.40
2023-07-31T14:54:04.414Z,2.70
2023-07-31T14:56:31.214Z,2.30
2023-07-31T14:58:58.689Z,2.60
2023-07-31T15:01:25.789Z,2.20
2023-07-31T15:03:52.732Z,2.67
2023-07-31T15:06:19.602Z,2.57
2023-07-31T15:08:46.561Z,3.07
2023-07-31T15:11:13.545Z,2.70
2023-07-31T15:13:40.380Z,2.83
2023-07-31T15:16:07.203Z,2.80
2023-07-31T15:18:34.105Z,2.80
2023-07-31T15:21:00.924Z,3.23
2023-07-31T15:23:27.801Z,3.40
2023-07-31T15:25:54.637Z,2.90
2023-07-31T15:28:21.588Z,2.70
2023-07-31T15:30:48.852Z,3.47
2023-07-31T15:33:16.969Z,3.50
2023-07-31T15:35:44.277Z,2.77
2023-07-31T15:38:11.457Z,3.30
2023-07-31T15:40:40.237Z,4.17
2023-07-31T15:43:07.156Z,3.00
2023-07-31T15:45:33.916Z,3.83
2023-07-31T15:48:00.739Z,3.70
2023-07-31T15:50:27.582Z,3.77
2023-07-31T15:52:56.644Z,4.00
2023-07-31T15:55:23.478Z,8.90
2023-07-31T15:57:50.332Z,3.60
2023-07-31T16:00:18.053Z,3.20
2023-07-31T16:02:45.074Z,3.63
2023-07-31T16:05:14.760Z,3.30
2023-07-31T16:07:41.526Z,3.13
2023-07-31T16:10:09.093Z,3.20
2023-07-31T16:12:36.115Z,3.60
2023-07-31T16:15:02.931Z,3.70
2023-07-31T16:17:29.773Z,3.10
2023-07-31T16:19:56.740Z,2.73
2023-07-31T16:22:23.609Z,2.70
2023-07-31T16:24:50.476Z,3.60
2023-07-31T16:27:17.431Z,3.07
2023-07-31T16:29:44.233Z,3.50
2023-07-31T16:32:12.787Z,3.20
2023-07-31T16:34:39.850Z,3.00
2023-07-31T16:37:06.769Z,3.60
2023-07-31T16:39:37.509Z,3.60
2023-07-31T16:42:05.121Z,3.60
2023-07-31T16:44:32.150Z,3.40
2023-07-31T16:46:59.137Z,2.90
2023-07-31T16:49:28.911Z,3.13
2023-07-31T16:51:55.703Z,2.70
2023-07-31T16:54:22.535Z,2.97
2023-07-31T16:56:59.426Z,2.70
2023-07-31T16:59:27.781Z,3.00
2023-07-31T17:01:56.512Z,2.50
2023-07-31T17:04:23.984Z,3.10
2023-07-31T17:06:50.963Z,2.73
2023-07-31T17:09:18.345Z,2.50
2023-07-31T17:11:45.203Z,2.90
2023-07-31T17:14:14.344Z,7.27
2023-07-31T17:16:43.049Z,3.27
2023-07-31T17:19:09.870Z,4.30
2023-07-31T17:21:37.933Z,4.70
2023-07-31T17:24:05.324Z,5.10
2023-07-31T17:26:32.119Z,2.73
2023-07-31T17:29:01.406Z,2.90
2023-07-31T17:31:28.674Z,2.90
2023-07-31T17:33:55.672Z,2.80
2023-07-31T17:36:22.723Z,2.40
2023-07-31T17:38:49.535Z,3.03
2023-07-31T17:41:16.602Z,2.97
2023-07-31T17:43:43.455Z,3.00
2023-07-31T17:46:10.279Z,2.90
2023-07-31T17:48:37.253Z,2.90
2023-07-31T17:51:04.117Z,2.80
2023-07-31T17:53:30.956Z,2.93
2023-07-31T17:55:57.852Z,2.30
2023-07-31T17:58:24.703Z,3.07
2023-07-31T18:00:52.648Z,2.87
2023-07-31T18:03:19.645Z,2.53
2023-07-31T18:05:46.629Z,2.87
2023-07-31T18:08:13.432Z,3.00
2023-07-31T18:10:47.471Z,2.90
2023-07-31T18:13:15.076Z,2.90
2023-07-31T18:15:46.328Z,3.43
2023-07-31T18:18:13.828Z,2.87
2023-07-31T18:20:41.046Z,3.30
2023-07-31T18:23:08.154Z,3.00
2023-07-31T18:25:35.044Z,2.60
2023-07-31T18:28:01.859Z,3.37
2023-07-31T18:30:28.814Z,2.20
2023-07-31T18:32:55.699Z,2.40
2023-07-31T18:35:22.610Z,2.13
2023-07-31T18:37:49.532Z,2.30
2023-07-31T18:40:16.424Z,2.07
2023-07-31T18:42:43.307Z,2.97
2023-07-31T18:45:10.394Z,1.90
2023-07-31T18:47:37.238Z,2.70
2023-07-31T18:50:11.536Z,2.63
2023-07-31T18:53:10.051Z,2.23
2023-07-31T18:55:59.340Z,2.50
2023-07-31T18:58:49.650Z,3.30
2023-07-31T19:01:28.811Z,1.97
2023-07-31T19:04:07.081Z,2.30
2023-07-31T19:06:59.190Z,2.57
2023-07-31T19:12:50.773Z,2.77
2023-07-31T19:15:33.154Z,3.03
2023-07-31T19:18:33.953Z,2.53
2023-07-31T19:21:24.312Z,3.30
2023-07-31T19:25:00.469Z,2.60
2023-07-31T19:27:49.764Z,3.00
2023-07-31T19:31:09.095Z,2.53
2023-07-31T19:34:02.138Z,2.83
2023-07-31T19:36:58.776Z,2.57
2023-07-31T19:42:52.142Z,3.00
2023-07-31T19:45:52.299Z,2.73
2023-07-31T19:51:57.221Z,3.23
2023-07-31T19:54:55.256Z,2.90
2023-07-31T20:01:18.653Z,3.57
2023-07-31T20:04:18.356Z,4.03
2023-07-31T20:07:05.022Z,3.33
2023-07-31T20:10:14.136Z,3.10
2023-07-31T20:13:03.788Z,3.97
2023-07-31T20:15:45.890Z,3.20
2023-07-31T20:18:27.245Z,3.10
2023-07-31T20:21:31.265Z,3.43
2023-07-31T20:24:19.631Z,3.33
2023-07-31T20:27:09.885Z,3.67
2023-07-31T20:29:47.007Z,3.33
2023-07-31T20:32:35.252Z,2.87
2023-07-31T20:35:43.337Z,3.17
2023-07-31T20:38:10.354Z,3.33
2023-07-31T20:40:37.074Z,4.70
2023-07-31T20:43:04.585Z,3.90
2023-07-31T20:45:33.327Z,3.17
2023-07-31T20:48:03.304Z,3.73
2023-07-31T20:50:30.777Z,3.20
2023-07-31T20:52:58.057Z,3.47
2023-07-31T20:55:24.786Z,4.07
2023-07-31T20:57:52.820Z,3.67
2023-07-31T21:00:21.532Z,4.27
2023-07-31T21:02:48.482Z,3.20
2023-07-31T21:05:15.401Z,4.80
2023-07-31T21:07:43.736Z,3.70
2023-07-31T21:10:12.260Z,3.70
2023-07-31T21:12:41.975Z,3.53
2023-07-31T21:15:10.798Z,3.50
2023-07-31T21:17:38.273Z,4.23
2023-07-31T21:20:05.821Z,4.33
2023-07-31T21:22:32.649Z,3.90
2023-07-31T21:24:59.460Z,4.07
2023-07-31T21:27:26.178Z,3.90
2023-07-31T21:29:55.864Z,4.93
2023-07-31T21:32:22.776Z,3.93
2023-07-31T21:34:49.579Z,4.40
2023-07-31T21:37:16.426Z,3.10
2023-07-31T21:39:43.160Z,4.67
2023-07-31T21:42:10.316Z,3.40
2023-07-31T21:44:37.123Z,3.93
2023-07-31T21:47:04.102Z,4.10
2023-07-31T21:49:30.882Z,4.77
2023-07-31T21:51:57.620Z,4.10
2023-07-31T21:54:24.359Z,5.13
2023-07-31T21:56:51.165Z,4.30
2023-07-31T21:59:17.929Z,4.03
2023-07-31T22:01:44.717Z,3.60
2023-07-31T22:04:11.511Z,3.50
2023-07-31T22:06:38.635Z,3.97
2023-07-31T22:09:05.789Z,3.00
2023-07-31T22:11:32.596Z,3.70
2023-07-31T22:13:59.373Z,3.20
2023-07-31T22:16:26.211Z,3.90
2023-07-31T22:18:53.119Z,4.70
2023-07-31T22:21:20.397Z,5.20
2023-07-31T22:23:47.264Z,5.10
2023-07-31T22:26:14.002Z,3.63
2023-07-31T22:28:40.895Z,4.03
2023-07-31T22:31:09.073Z,4.80
2023-07-31T22:33:36.758Z,3.93
2023-07-31T22:36:03.678Z,4.20
2023-07-31T22:38:30.518Z,3.70
2023-07-31T22:40:57.269Z,3.57
2023-07-31T22:43:24.255Z,3.93
2023-07-31T22:45:51.173Z,3.50
2023-07-31T22:48:17.952Z,3.50
2023-07-31T22:50:44.814Z,4.20
2023-07-31T22:53:11.564Z,3.07
2023-07-31T22:55:38.417Z,4.00
2023-07-31T22:58:05.192Z,4.00
2023-07-31T23:00:31.921Z,3.40
2023-07-31T23:02:58.688Z,4.00
2023-07-31T23:05:25.559Z,3.77
2023-07-31T23:07:52.433Z,3.43
2023-07-31T23:10:19.342Z,3.70
2023-07-31T23:12:46.326Z,4.00
2023-07-31T23:15:13.701Z,3.93
2023-07-31T23:18:19.141Z,3.40
2023-07-31T23:20:57.493Z,4.03
2023-07-31T23:23:27.686Z,4.30
2023-07-31T23:25:54.645Z,3.97
2023-07-31T23:28:21.811Z,4.27
2023-07-31T23:30:49.666Z,4.00
2023-07-31T23:33:16.751Z,3.83
2023-07-31T23:35:44.072Z,4.20
2023-07-31T23:38:11.047Z,4.10
2023-07-31T23:40:38.016Z,3.43
2023-07-31T23:43:04.931Z,3.93
2023-07-31T23:45:32.055Z,3.70
2023-07-31T23:48:00.593Z,4.60
2023-07-31T23:50:27.838Z,4.10
2023-07-31T23:52:56.396Z,3.90
2023-07-31T23:55:23.440Z,4.13
2023-07-31T23:57:50.583Z,4.10
